Time;durP1;ratioP1;P1;durP2;ratioP2;P2;SDS_P1;SDS_P2;PMS_P1;PMS_P2;Temp;Humidity;BMP_temperature;BMP_pressure;BME280_temperature;BME280_humidity;BME280_pressure;Samples;Min_cycle;Max_cycle;Signal;HPM_P1;HPM_P2
2022/10/15 00:00:07;;;;;;;68.92;36.53;;;;;;;10.86;90.75;99006.66;1778745;80;21520;-44
2022/10/15 00:02:33;;;;;;;59.93;36.68;;;;;;;10.87;90.84;99001.78;1778673;80;21022;-45
2022/10/15 00:04:59;;;;;;;62.60;35.38;;;;;;;10.86;90.92;99004.89;1778805;80;20956;-46
2022/10/15 00:07:25;;;;;;;64.55;36.17;;;;;;;10.84;91.40;99001.52;1778820;80;20955;-42
2022/10/15 00:09:50;;;;;;;67.75;37.40;;;;;;;10.85;91.35;98996.61;1778755;81;21758;-42
2022/10/15 00:12:16;;;;;;;65.45;36.58;;;;;;;10.85;91.86;98990.52;1778865;80;21497;-46
2022/10/15 00:14:42;;;;;;;65.28;37.67;;;;;;;10.87;91.57;98991.27;1778789;81;20981;-46
2022/10/15 00:17:08;;;;;;;60.90;36.13;;;;;;;10.88;91.97;98989.02;1778920;81;21023;-44
2022/10/15 00:19:33;;;;;;;63.13;35.65;;;;;;;10.87;92.07;98992.09;1778743;80;20975;-44
2022/10/15 00:21:59;;;;;;;63.75;37.05;;;;;;;10.90;91.59;98984.50;1778686;81;20956;-45
2022/10/15 00:24:25;;;;;;;67.95;36.65;;;;;;;10.91;91.58;98984.41;1786011;80;21039;-44
2022/10/15 00:26:50;;;;;;;66.92;37.70;;;;;;;10.93;91.59;98982.98;1786986;80;20990;-42
2022/10/15 00:29:16;;;;;;;63.48;36.15;;;;;;;10.92;91.75;98981.30;1787023;80;20951;-43
2022/10/15 00:31:42;;;;;;;64.80;36.83;;;;;;;10.91;91.67;98980.47;1786984;80;21023;-45
2022/10/15 00:34:08;;;;;;;73.92;38.28;;;;;;;10.91;91.71;98974.34;1787080;80;20982;-44
2022/10/15 00:36:36;;;;;;;63.42;36.65;;;;;;;10.90;91.83;98972.19;1787019;80;20987;-43
2022/10/15 00:39:03;;;;;;;;;;;;;;;10.94;91.61;98970.21;1789640;80;21006;-44
2022/10/15 00:41:39;;;;;;;67.60;37.67;;;;;;;10.91;92.32;98969.08;1786944;80;20104;-45
2022/10/15 00:44:32;;;;;;;65.95;37.23;;;;;;;10.93;91.81;98964.56;1786883;80;20983;-42
2022/10/15 00:47:15;;;;;;;69.70;37.55;;;;;;;10.95;91.70;98963.99;1786977;80;20960;-43
2022/10/15 00:49:52;;;;;;;72.75;38.00;;;;;;;10.95;91.59;98958.28;1786998;80;20959;-40
2022/10/15 00:52:26;;;;;;;65.42;37.05;;;;;;;10.98;91.40;98966.44;1787199;80;21811;-40
2022/10/15 00:55:06;;;;;;;77.03;38.40;;;;;;;10.97;91.46;98960.83;1787112;80;20987;-44
2022/10/15 00:57:33;;;;;;;64.27;36.45;;;;;;;10.96;92.03;98959.13;1782730;80;20976;-43
2022/10/15 01:00:04;;;;;;;71.72;37.08;;;;;;;10.98;91.84;98956.40;1787055;80;21765;-40
2022/10/15 01:02:30;;;;;;;69.37;37.98;;;;;;;10.99;91.45;98956.75;1786794;80;20991;-41
2022/10/15 01:04:56;;;;;;;71.45;37.70;;;;;;;11.00;91.55;98961.09;1786993;80;20991;-47
2022/10/15 01:07:22;;;;;;;73.02;38.30;;;;;;;10.99;91.52;98957.63;1786992;80;20983;-45
2022/10/15 01:09:48;;;;;;;63.68;36.63;;;;;;;10.98;91.90;98949.34;1786930;80;20994;-45
2022/10/15 01:12:28;;;;;;;68.72;37.23;;;;;;;10.98;91.77;98948.03;1786976;80;20979;-44
2022/10/15 01:15:17;;;;;;;61.02;35.75;;;;;;;11.01;91.61;98939.95;1787044;80;21027;-44
2022/10/15 01:18:00;;;;;;;64.95;36.33;;;;;;;11.03;91.58;98935.43;1761842;80;20979;-39
2022/10/15 01:20:49;;;;;;;59.75;35.90;;;;;;;11.05;91.62;98936.17;1786933;80;21457;-42
2022/10/15 01:23:44;;;;;;;64.95;35.95;;;;;;;11.04;91.87;98931.88;1787022;80;21033;-40
2022/10/15 01:26:33;;;;;;;64.20;35.70;;;;;;;11.06;91.58;98921.22;1750793;80;21010;-44
2022/10/15 01:29:36;;;;;;;65.97;35.20;;;;;;;11.08;91.54;98921.52;1786871;80;20956;-42
2022/10/15 01:32:13;;;;;;;66.00;36.83;;;;;;;11.06;91.53;98918.14;1786968;80;20987;-38
2022/10/15 01:34:52;;;;;;;61.60;35.63;;;;;;;11.09;91.23;98917.09;1786939;80;20971;-45
2022/10/15 01:37:32;;;;;;;59.60;34.70;;;;;;;11.08;91.49;98914.11;1774438;80;20975;-42
2022/10/15 01:40:09;;;;;;;69.62;36.58;;;;;;;11.09;91.35;98906.09;1760683;80;21029;-40
2022/10/15 01:42:42;;;;;;;;;;;;;;;11.11;91.57;98912.13;1789051;80;20987;-44
2022/10/15 01:45:12;;;;;;;60.95;35.55;;;;;;;11.08;91.90;98908.36;1785050;80;20441;-42
2022/10/15 01:47:49;;;;;;;64.07;36.10;;;;;;;11.09;91.61;98908.72;1787151;80;20975;-47
2022/10/15 01:50:18;;;;;;;64.07;34.73;;;;;;;11.08;91.87;98914.94;1787482;80;21426;-47
2022/10/15 01:52:44;;;;;;;64.55;35.63;;;;;;;11.08;91.50;98913.63;1787115;80;20979;-42
2022/10/15 01:55:13;;;;;;;63.17;35.68;;;;;;;11.08;91.67;98908.36;1756360;80;20998;-48
2022/10/15 01:57:43;;;;;;;60.90;34.13;;;;;;;11.09;91.60;98900.83;1787102;80;20959;-43
2022/10/15 02:00:10;;;;;;;56.92;33.35;;;;;;;11.09;91.86;98896.87;1756353;80;20979;-43
2022/10/15 02:02:36;;;;;;;60.12;32.75;;;;;;;11.11;91.86;98904.68;1787205;80;20995;-42
2022/10/15 02:05:04;;;;;;;53.90;33.02;;;;;;;11.11;92.06;98906.00;1787088;80;20983;-49
2022/10/15 02:07:56;;;;;;;54.08;33.73;;;;;;;11.11;91.75;98901.59;1787108;80;20963;-40
2022/10/15 02:10:45;;;;;;;63.95;34.65;;;;;;;11.15;91.49;98900.90;1787124;80;20952;-42
2022/10/15 02:13:29;;;;;;;62.83;33.23;;;;;;;11.13;91.58;98899.71;1776769;80;20979;-44
2022/10/15 02:16:12;;;;;;;60.73;33.05;;;;;;;11.16;91.32;98892.08;1776215;80;21022;-40
2022/10/15 02:18:49;;;;;;;59.70;33.95;;;;;;;11.17;91.62;98900.81;1787052;80;21026;-42
2022/10/15 02:21:23;;;;;;;58.83;32.93;;;;;;;11.16;91.68;98897.34;1787071;80;21010;-42
2022/10/15 02:23:57;;;;;;;61.85;34.95;;;;;;;11.14;91.29;98885.59;1783507;80;21023;-39
2022/10/15 02:26:26;;;;;;;63.87;36.25;;;;;;;11.11;91.73;98884.49;1777421;80;21429;-41
2022/10/15 02:28:56;;;;;;;59.55;33.60;;;;;;;11.14;91.65;98891.33;1778862;81;20952;-43
2022/10/15 02:31:25;;;;;;;63.95;33.73;;;;;;;11.13;91.51;98883.05;1778542;80;20964;-38
2022/10/15 02:33:55;;;;;;;57.10;32.55;;;;;;;11.11;91.66;98881.86;1778825;81;20972;-44
2022/10/15 02:36:21;;;;;;;61.20;33.63;;;;;;;11.13;91.37;98888.31;1779053;81;21447;-44
2022/10/15 02:38:49;;;;;;;58.50;32.95;;;;;;;11.15;91.11;98889.06;1778764;81;20987;-47
2022/10/15 02:43:30;;;;;;;62.13;34.90;;;;;;;11.14;91.49;98880.81;1800302;79;22754;-39
2022/10/15 02:45:56;;;;;;;55.83;33.90;;;;;;;11.11;91.19;98891.52;1760772;81;21027;-42
2022/10/15 02:48:21;;;;;;;60.98;33.38;;;;;;;11.07;91.21;98889.55;1761672;80;21006;-45
2022/10/15 02:50:47;;;;;;;70.10;33.60;;;;;;;11.07;91.48;98882.14;1761754;81;21500;-43
2022/10/15 02:53:13;;;;;;;63.98;35.20;;;;;;;11.07;91.19;98882.14;1761847;81;21468;-39
2022/10/15 02:55:39;;;;;;;56.05;32.83;;;;;;;11.06;91.26;98881.31;1761577;80;21559;-41
2022/10/15 02:58:04;;;;;;;59.98;33.48;;;;;;;11.05;91.79;98870.39;1761776;81;21487;-42
2022/10/15 03:00:30;;;;;;;59.20;33.98;;;;;;;11.07;91.37;98869.82;1761792;80;21519;-45
2022/10/15 03:02:56;;;;;;;59.23;32.73;;;;;;;11.07;91.43;98863.72;1761721;80;20979;-40
2022/10/15 03:05:22;;;;;;;56.18;32.33;;;;;;;11.09;91.13;98867.09;1761691;80;21022;-42
2022/10/15 03:07:47;;;;;;;53.78;33.02;;;;;;;11.09;91.04;98862.67;1761794;81;20984;-43
2022/10/15 03:10:13;;;;;;;54.63;32.28;;;;;;;11.05;91.36;98862.98;1761743;81;20995;-42
2022/10/15 03:12:39;;;;;;;55.60;32.10;;;;;;;11.05;91.25;98865.13;1761705;80;21011;-41
2022/10/15 03:15:06;;;;;;;59.15;33.18;;;;;;;11.04;91.35;98869.17;1761771;81;20999;-41
2022/10/15 03:17:32;;;;;;;57.83;33.18;;;;;;;11.01;91.19;98870.70;1761825;81;20995;-46
2022/10/15 03:19:58;;;;;;;59.33;33.65;;;;;;;10.99;90.90;98862.91;1761669;81;21053;-45
2022/10/15 03:22:24;;;;;;;51.85;33.63;;;;;;;10.94;91.49;98862.34;1761671;81;21047;-45
2022/10/15 03:24:49;;;;;;;57.88;32.80;;;;;;;10.92;90.79;98864.23;1761746;80;20951;-43
2022/10/15 03:27:15;;;;;;;55.15;32.53;;;;;;;10.84;91.44;98857.28;1761787;81;21445;-45
2022/10/15 03:29:41;;;;;;;58.42;32.65;;;;;;;10.79;91.66;98854.97;1761830;81;20987;-44
2022/10/15 03:32:06;;;;;;;55.48;31.80;;;;;;;10.76;91.65;98851.20;1761723;81;20982;-46
2022/10/15 03:34:32;;;;;;;54.27;31.70;;;;;;;10.72;91.59;98852.34;1761676;80;20987;-40
2022/10/15 03:36:58;;;;;;;57.55;32.45;;;;;;;10.67;92.03;98852.62;1761714;80;20995;-43
2022/10/15 03:39:24;;;;;;;64.12;33.65;;;;;;;10.66;92.15;98849.63;1761717;80;21030;-46
2022/10/15 03:41:52;;;;;;;48.20;30.72;;;;;;;10.63;92.49;98842.41;1758743;80;21051;-38
2022/10/15 03:44:19;;;;;;;57.48;31.97;;;;;;;10.60;92.35;98838.16;1748656;81;20988;-46
2022/10/15 03:46:44;;;;;;;62.20;33.58;;;;;;;10.58;91.89;98838.73;1748612;82;21042;-46
2022/10/15 03:49:11;;;;;;;52.93;31.62;;;;;;;10.53;92.45;98825.89;1748653;81;20980;-41
2022/10/15 03:51:36;;;;;;;54.85;31.40;;;;;;;10.54;92.33;98829.36;1748611;81;21387;-40
2022/10/15 03:54:03;;;;;;;53.40;30.12;;;;;;;10.54;92.02;98843.34;1748340;81;21007;-44
2022/10/15 03:56:28;;;;;;;57.75;31.90;;;;;;;10.54;92.20;98841.19;1748076;81;20996;-43
2022/10/15 03:58:54;;;;;;;61.73;32.35;;;;;;;10.52;92.67;98843.91;1748216;81;21563;-47
2022/10/15 04:01:20;;;;;;;56.77;32.23;;;;;;;10.48;93.08;98848.16;1748090;81;20996;-42
2022/10/15 04:03:46;;;;;;;53.45;31.45;;;;;;;10.46;92.99;98850.00;1748058;81;20980;-42
2022/10/15 04:06:11;;;;;;;52.27;32.15;;;;;;;10.42;93.32;98849.83;1748281;81;21039;-43
2022/10/15 04:08:37;;;;;;;52.35;31.85;;;;;;;10.38;93.22;98839.98;1748094;81;20968;-46
2022/10/15 04:11:03;;;;;;;59.58;32.05;;;;;;;10.36;92.92;98833.97;1748027;81;20991;-46
2022/10/15 04:13:29;;;;;;;60.28;33.65;;;;;;;10.33;93.24;98833.70;1748049;81;20995;-47
2022/10/15 04:15:55;;;;;;;65.28;33.75;;;;;;;10.32;92.72;98835.94;1748037;81;20995;-46
2022/10/15 04:18:21;;;;;;;57.83;33.38;;;;;;;10.28;93.38;98826.53;1748045;82;21000;-42
2022/10/15 04:20:48;;;;;;;59.90;34.00;;;;;;;10.26;93.42;98818.34;1748204;81;21488;-38
2022/10/15 04:23:16;;;;;;;62.70;33.20;;;;;;;10.25;93.64;98820.14;1748211;81;20964;-43
2022/10/15 04:25:41;;;;;;;;;;;;;;;10.24;93.32;98816.29;1750674;82;21028;-43
2022/10/15 04:28:08;;;;;;;61.85;32.35;;;;;;;10.21;93.86;98812.08;1748105;81;20137;-41
2022/10/15 04:30:33;;;;;;;63.60;33.30;;;;;;;10.21;94.10;98814.70;1748052;81;20999;-46
2022/10/15 04:32:59;;;;;;;57.98;32.40;;;;;;;10.22;93.85;98819.48;1748149;81;20995;-43
2022/10/15 04:35:25;;;;;;;55.38;31.37;;;;;;;10.21;93.52;98816.02;1748179;81;21456;-45
2022/10/15 04:37:51;;;;;;;59.63;30.92;;;;;;;10.19;93.47;98824.47;1748160;81;21113;-45
2022/10/15 04:40:17;;;;;;;54.65;31.35;;;;;;;10.16;94.07;98820.70;1748123;81;20992;-44
2022/10/15 04:42:43;;;;;;;62.48;32.83;;;;;;;10.14;93.83;98822.59;1747961;81;21011;-39
2022/10/15 04:45:09;;;;;;;52.98;31.33;;;;;;;10.15;93.59;98820.32;1748004;82;20960;-42
2022/10/15 04:47:35;;;;;;;61.23;32.28;;;;;;;10.15;93.52;98817.69;1748050;81;20991;-38
2022/10/15 04:50:00;;;;;;;56.10;32.05;;;;;;;10.14;93.12;98809.45;1748013;81;21026;-40
2022/10/15 04:52:26;;;;;;;54.58;33.10;;;;;;;10.10;93.90;98810.59;1748056;81;21035;-39
2022/10/15 04:54:52;;;;;;;58.58;31.45;;;;;;;10.09;94.07;98804.95;1748048;81;20964;-44
2022/10/15 04:57:18;;;;;;;57.27;31.68;;;;;;;10.09;93.83;98803.63;1748067;81;21000;-45
2022/10/15 04:59:43;;;;;;;53.78;30.50;;;;;;;10.09;93.90;98806.25;1747990;81;20996;-46
2022/10/15 05:02:10;;;;;;;51.77;31.57;;;;;;;10.08;93.96;98808.52;1747998;81;20991;-47
2022/10/15 05:04:36;;;;;;;57.10;29.77;;;;;;;10.07;94.27;98808.97;1748381;82;20987;-44
2022/10/15 05:07:02;;;;;;;52.17;31.00;;;;;;;10.07;94.25;98812.08;1748082;81;21469;-39
2022/10/15 05:09:28;;;;;;;56.98;30.27;;;;;;;10.05;93.87;98812.16;1748007;82;20987;-41
2022/10/15 05:11:54;;;;;;;57.35;30.10;;;;;;;10.04;93.56;98810.50;1748024;81;20952;-49
2022/10/15 05:14:21;;;;;;;55.52;30.37;;;;;;;10.07;93.49;98813.39;1737590;82;21480;-44
2022/10/15 05:16:47;;;;;;;55.08;31.02;;;;;;;10.04;94.03;98817.51;1748135;81;20976;-46
2022/10/15 05:19:13;;;;;;;48.52;29.95;;;;;;;10.04;93.69;98817.51;1747993;82;20991;-42
2022/10/15 05:21:39;;;;;;;50.48;30.27;;;;;;;10.02;94.00;98818.08;1747962;81;20988;-47
2022/10/15 05:24:05;;;;;;;58.15;31.68;;;;;;;10.01;93.50;98815.92;1748190;81;21035;-45
2022/10/15 05:26:31;;;;;;;52.27;30.70;;;;;;;10.03;93.68;98823.23;1747976;81;21023;-39
2022/10/15 05:28:58;;;;;;;50.85;30.62;;;;;;;10.03;93.82;98821.09;1747991;81;20996;-44
2022/10/15 05:31:28;;;;;;;54.45;30.55;;;;;;;10.03;93.63;98821.92;1748187;81;20971;-41
2022/10/15 05:33:54;;;;;;;55.35;30.35;;;;;;;10.05;93.67;98823.16;1748103;81;21523;-44
2022/10/15 05:36:28;;;;;;;50.33;29.92;;;;;;;10.05;93.62;98825.30;1748243;81;20995;-46
2022/10/15 05:38:58;;;;;;;52.50;30.97;;;;;;;10.08;93.47;98824.29;1748055;81;21000;-42
2022/10/15 05:41:25;;;;;;;50.90;29.65;;;;;;;10.10;93.45;98823.24;1747673;81;20953;-46
2022/10/15 05:43:53;;;;;;;54.30;30.57;;;;;;;10.12;92.77;98825.78;1759224;80;21055;-49
2022/10/15 05:46:20;;;;;;;54.73;31.60;;;;;;;10.12;92.95;98825.30;1761371;81;21000;-40
2022/10/15 05:48:52;;;;;;;49.20;30.32;;;;;;;10.13;93.17;98822.20;1761625;81;20995;-44
2022/10/15 05:51:18;;;;;;;54.53;30.68;;;;;;;10.13;93.52;98828.33;1760487;80;21042;-46
2022/10/15 05:53:45;;;;;;;50.12;31.02;;;;;;;10.16;93.45;98825.97;1761452;81;21507;-46
2022/10/15 05:56:12;;;;;;;44.73;29.37;;;;;;;10.20;93.04;98819.58;1761646;80;20971;-43
2022/10/15 05:58:39;;;;;;;50.05;29.90;;;;;;;10.21;93.23;98816.02;1761502;80;21011;-47
2022/10/15 06:01:08;;;;;;;49.65;31.05;;;;;;;10.23;93.01;98811.52;1744558;81;20972;-40
2022/10/15 06:03:34;;;;;;;49.98;31.00;;;;;;;10.23;93.30;98814.14;1761346;81;20995;-42
2022/10/15 06:06:00;;;;;;;54.58;31.05;;;;;;;10.27;93.31;98816.95;1761366;81;21099;-41
2022/10/15 06:08:28;;;;;;;51.02;29.55;;;;;;;10.33;93.06;98817.06;1761363;81;21497;-46
2022/10/15 06:10:55;;;;;;;57.33;31.55;;;;;;;10.37;93.14;98822.05;1761428;81;21011;-39
2022/10/15 06:13:22;;;;;;;48.85;29.52;;;;;;;10.43;93.07;98821.30;1761443;81;21038;-43
2022/10/15 06:15:48;;;;;;;48.65;30.37;;;;;;;10.48;92.99;98821.87;1761422;81;21464;-42
2022/10/15 06:18:15;;;;;;;51.85;31.80;;;;;;;10.52;92.89;98817.63;1761372;81;21421;-44
2022/10/15 06:20:42;;;;;;;54.13;31.57;;;;;;;10.58;92.82;98816.39;1761422;81;21049;-49
2022/10/15 06:23:09;;;;;;;;;;;;;;;10.68;92.66;98817.51;1763869;80;20998;-49
2022/10/15 06:25:35;;;;;;;55.20;31.10;;;;;;;10.72;92.51;98815.53;1761712;81;20364;-47
2022/10/15 06:28:03;;;;;;;56.42;30.72;;;;;;;10.78;92.34;98817.75;1761511;81;21722;-43
2022/10/15 06:30:29;;;;;;;53.25;30.72;;;;;;;10.85;91.98;98816.91;1761345;81;20960;-45
2022/10/15 06:32:56;;;;;;;52.60;30.80;;;;;;;10.91;91.76;98804.66;1761281;81;20960;-45
2022/10/15 06:35:24;;;;;;;51.15;29.07;;;;;;;10.99;91.58;98811.60;1761433;81;21451;-39
2022/10/15 06:37:50;;;;;;;53.83;30.43;;;;;;;11.04;91.42;98816.10;1761533;80;21027;-43
2022/10/15 06:40:16;;;;;;;51.33;30.17;;;;;;;11.11;91.05;98814.76;1761279;81;20991;-46
2022/10/15 06:42:42;;;;;;;48.52;30.10;;;;;;;11.16;90.81;98817.07;1761137;81;21026;-43
2022/10/15 06:45:09;;;;;;;48.92;29.48;;;;;;;11.19;90.86;98811.62;1761452;81;21002;-41
2022/10/15 06:47:36;;;;;;;;;;;;;;;11.26;90.61;98814.67;1763895;81;21018;-41
2022/10/15 06:50:04;;;;;;;61.53;30.60;;;;;;;11.28;90.82;98822.02;1761571;81;20104;-43
2022/10/15 06:52:31;;;;;;;46.02;29.40;;;;;;;11.29;90.45;98823.21;1761289;81;21511;-44
2022/10/15 06:54:57;;;;;;;54.15;31.60;;;;;;;11.31;90.41;98821.80;1761307;81;21441;-38
2022/10/15 06:57:24;;;;;;;49.25;30.17;;;;;;;11.33;90.33;98814.64;1761374;81;21030;-42
2022/10/15 06:59:50;;;;;;;;;;;;;;;11.33;90.22;98818.59;1763988;81;20971;-43
2022/10/15 07:02:18;;;;;;;57.13;32.23;;;;;;;11.32;90.29;98821.70;1761213;81;20416;-45
2022/10/15 07:04:44;;;;;;;;;;;;;;;11.34;90.16;98818.49;1763893;81;20984;-43
2022/10/15 07:07:10;;;;;;;52.95;31.23;;;;;;;11.34;90.34;98826.87;1761635;81;20104;-42
2022/10/15 07:09:36;;;;;;;51.10;29.35;;;;;;;11.35;90.42;98828.58;1761282;81;21023;-43
2022/10/15 07:12:03;;;;;;;52.73;31.50;;;;;;;11.39;90.33;98819.97;1761380;81;20963;-43
2022/10/15 07:14:28;;;;;;;55.45;32.10;;;;;;;11.42;90.44;98832.45;1761584;81;21046;-44
2022/10/15 07:16:54;;;;;;;45.90;29.18;;;;;;;11.44;90.30;98820.06;1761296;81;21003;-43
2022/10/15 07:19:20;;;;;;;49.48;29.80;;;;;;;11.47;90.39;98825.10;1761236;80;20983;-41
2022/10/15 07:21:45;;;;;;;55.58;32.08;;;;;;;11.50;90.57;98826.23;1761236;80;20999;-43
2022/10/15 07:24:11;;;;;;;51.15;31.35;;;;;;;11.53;90.69;98820.77;1761266;81;20956;-43
2022/10/15 07:26:37;;;;;;;49.20;31.20;;;;;;;11.60;90.64;98828.24;1761374;80;21021;-49
2022/10/15 07:29:04;;;;;;;55.25;30.52;;;;;;;11.69;90.50;98822.36;1761427;81;21026;-42
2022/10/15 07:31:30;;;;;;;48.90;30.43;;;;;;;11.77;90.43;98821.38;1761782;81;21445;-45
2022/10/15 07:33:56;;;;;;;52.85;30.05;;;;;;;11.87;90.31;98822.91;1761407;81;21429;-41
2022/10/15 07:36:22;;;;;;;54.70;31.12;;;;;;;12.00;90.22;98818.98;1761437;81;21031;-40
2022/10/15 07:38:47;;;;;;;59.38;29.95;;;;;;;12.10;90.07;98820.05;1761398;80;21030;-42
2022/10/15 07:41:13;;;;;;;47.08;28.52;;;;;;;12.22;89.95;98824.93;1761398;80;20963;-44
2022/10/15 07:43:39;;;;;;;51.73;29.72;;;;;;;12.33;89.56;98825.02;1761327;80;21450;-39
2022/10/15 07:46:05;;;;;;;50.40;29.48;;;;;;;12.47;89.43;98816.15;1761469;81;21026;-44
2022/10/15 07:48:32;;;;;;;42.30;28.35;;;;;;;12.55;89.09;98812.51;1761419;81;20994;-42
2022/10/15 07:51:00;;;;;;;51.68;29.23;;;;;;;12.67;88.82;98815.56;1761514;81;21626;-43
2022/10/15 07:53:27;;;;;;;44.15;28.07;;;;;;;12.76;88.40;98810.59;1761514;81;21034;-45
2022/10/15 07:55:53;;;;;;;46.98;29.27;;;;;;;12.84;88.32;98810.41;1761668;81;20987;-46
2022/10/15 07:58:19;;;;;;;53.55;30.08;;;;;;;12.96;88.34;98812.63;1761399;81;21475;-44
2022/10/15 08:00:45;;;;;;;49.73;28.55;;;;;;;13.08;87.89;98817.50;1761438;81;21528;-44
2022/10/15 08:03:10;;;;;;;48.52;29.37;;;;;;;13.14;86.86;98813.56;1761313;81;20984;-44
2022/10/15 08:05:36;;;;;;;49.67;29.15;;;;;;;13.28;86.90;98812.08;1761406;81;21019;-42
2022/10/15 08:08:03;;;;;;;49.40;27.98;;;;;;;13.40;86.89;98815.13;1761404;81;20987;-47
2022/10/15 08:10:28;;;;;;;48.48;27.25;;;;;;;13.55;86.98;98809.20;1761406;81;20995;-39
2022/10/15 08:12:54;;;;;;;44.60;26.00;;;;;;;13.67;86.51;98814.02;1761518;81;20960;-43
2022/10/15 08:15:20;;;;;;;37.83;25.45;;;;;;;13.73;85.37;98814.88;1761437;81;20964;-47
2022/10/15 08:17:45;;;;;;;44.90;27.07;;;;;;;13.79;85.19;98815.74;1761367;81;21426;-40
2022/10/15 08:20:12;;;;;;;38.30;24.72;;;;;;;13.85;84.34;98809.14;1761400;80;20960;-45
2022/10/15 08:22:37;;;;;;;40.52;26.57;;;;;;;13.90;84.11;98807.00;1760561;81;21031;-43
2022/10/15 08:25:04;;;;;;;41.68;24.82;;;;;;;14.00;83.70;98811.08;1761005;81;20967;-41
2022/10/15 08:27:30;;;;;;;46.98;25.05;;;;;;;14.09;83.43;98810.86;1761677;81;21002;-41
2022/10/15 08:29:55;;;;;;;41.30;25.00;;;;;;;14.16;83.37;98804.97;1761388;81;21449;-45
2022/10/15 08:32:21;;;;;;;38.33;24.05;;;;;;;14.29;82.42;98807.98;1761353;81;20995;-40
2022/10/15 08:34:47;;;;;;;41.25;24.72;;;;;;;14.29;82.42;98807.98;1761503;81;21003;-40
2022/10/15 08:37:13;;;;;;;41.15;24.82;;;;;;;14.34;82.27;98804.50;1761468;81;20998;-45
2022/10/15 08:39:38;;;;;;;40.00;23.47;;;;;;;14.40;81.51;98801.36;1761419;81;21575;-48
2022/10/15 08:42:19;;;;;;;41.80;24.75;;;;;;;14.45;81.35;98808.95;1761378;81;21531;-45
2022/10/15 08:44:55;;;;;;;33.38;23.15;;;;;;;14.44;80.57;98810.73;1739019;81;21011;-43
2022/10/15 08:47:42;;;;;;;33.18;23.27;;;;;;;14.47;80.36;98809.17;1756178;81;20993;-43
2022/10/15 08:50:51;;;;;;;39.25;23.98;;;;;;;14.52;80.67;98807.02;1750450;82;21472;-42
2022/10/15 08:53:21;;;;;;;39.70;24.20;;;;;;;14.54;79.81;98810.38;1755787;80;20956;-44
2022/10/15 08:55:55;;;;;;;40.83;24.23;;;;;;;14.55;80.03;98804.13;1755938;81;20994;-45
2022/10/15 08:58:50;;;;;;;32.60;22.42;;;;;;;14.61;79.74;98810.77;1755291;81;21023;-44
2022/10/15 09:01:31;;;;;;;38.38;21.40;;;;;;;14.70;79.35;98812.67;1756134;82;20960;-44
2022/10/15 09:04:08;;;;;;;40.95;22.42;;;;;;;14.89;78.77;98809.88;1756030;80;21039;-46
2022/10/15 09:06:38;;;;;;;33.58;21.37;;;;;;;15.01;77.96;98814.17;1755645;80;20984;-41
2022/10/15 09:09:29;;;;;;;34.30;21.27;;;;;;;15.15;78.49;98813.89;1756068;81;20955;-46
2022/10/15 09:12:48;;;;;;;31.80;20.75;;;;;;;15.24;78.54;98807.47;1755610;80;20964;-43
2022/10/15 09:15:18;;;;;;;30.75;20.40;;;;;;;15.30;78.58;98807.81;1756003;81;21003;-40
2022/10/15 09:17:49;;;;;;;34.18;21.50;;;;;;;15.35;77.74;98804.31;1756071;80;20987;-48
2022/10/15 09:20:20;;;;;;;32.30;19.77;;;;;;;15.35;77.67;98806.09;1755982;80;20983;-46
2022/10/15 09:22:50;;;;;;;35.25;21.30;;;;;;;15.33;76.33;98810.68;1755952;81;20983;-44
2022/10/15 09:25:20;;;;;;;30.65;19.85;;;;;;;15.44;77.29;98807.14;1755969;81;21023;-40
2022/10/15 09:27:49;;;;;;;32.30;19.48;;;;;;;15.55;77.59;98816.36;1754788;81;20987;-49
2022/10/15 09:30:35;;;;;;;28.30;19.32;;;;;;;15.65;77.30;98804.03;1755606;81;21528;-45
2022/10/15 09:33:12;;;;;;;28.87;20.83;;;;;;;15.68;76.85;98801.12;1755738;81;20984;-43
2022/10/15 09:35:49;;;;;;;28.70;18.42;;;;;;;15.72;76.66;98803.87;1755567;81;20944;-42
2022/10/15 09:38:53;;;;;;;28.62;19.27;;;;;;;15.79;76.29;98808.67;1753990;81;21465;-40
2022/10/15 09:41:30;;;;;;;27.27;18.27;;;;;;;15.79;74.82;98805.56;1755822;81;20941;-43
2022/10/15 09:43:58;;;;;;;32.42;19.02;;;;;;;15.94;75.36;98796.78;1752379;80;20992;-46
2022/10/15 09:46:24;;;;;;;31.12;18.50;;;;;;;15.98;74.20;98796.86;1747749;81;21541;-44
2022/10/15 09:49:24;;;;;;;30.97;19.27;;;;;;;16.03;72.80;98799.14;1747760;81;21027;-48
2022/10/15 09:52:16;;;;;;;37.38;18.65;;;;;;;16.11;73.28;98808.59;1747751;81;20984;-40
2022/10/15 09:55:30;;;;;;;28.98;16.85;;;;;;;16.20;73.28;98802.98;1747757;81;21035;-47
2022/10/15 09:58:04;;;;;;;33.98;17.52;;;;;;;16.26;71.39;98801.11;1727207;81;20963;-48
2022/10/15 10:01:00;;;;;;;38.45;22.58;;;;;;;16.36;71.97;98805.15;1747664;81;21160;-43
2022/10/15 10:03:30;;;;;;;30.05;18.05;;;;;;;16.44;71.70;98793.36;1747905;81;21031;-42
2022/10/15 10:06:09;;;;;;;34.25;17.90;;;;;;;16.48;71.17;98807.57;1747537;81;20984;-42
2022/10/15 10:08:51;;;;;;;26.07;15.70;;;;;;;16.50;70.20;98799.48;1747660;82;20995;-45
2022/10/15 10:11:19;;;;;;;27.32;17.02;;;;;;;16.39;69.70;98802.20;1747724;82;21461;-46
2022/10/15 10:13:58;;;;;;;28.07;17.15;;;;;;;16.43;70.20;98808.45;1747809;81;20988;-46
2022/10/15 10:16:25;;;;;;;36.58;17.73;;;;;;;16.33;69.77;98811.55;1747765;81;21004;-45
2022/10/15 10:19:13;;;;;;;30.80;17.67;;;;;;;16.29;70.72;98817.61;1747814;81;20995;-45
2022/10/15 10:21:41;;;;;;;31.73;17.70;;;;;;;16.28;70.54;98821.71;1747682;82;20960;-44
2022/10/15 10:24:30;;;;;;;28.07;17.17;;;;;;;16.30;70.12;98811.84;1747731;82;21020;-46
2022/10/15 10:27:01;;;;;;;24.98;17.52;;;;;;;16.37;70.90;98806.81;1747769;81;20960;-46
2022/10/15 10:29:29;;;;;;;31.45;17.87;;;;;;;16.42;70.21;98813.39;1747611;82;20956;-42
2022/10/15 10:31:55;;;;;;;24.32;16.62;;;;;;;16.58;70.71;98810.25;1747929;81;21035;-44
2022/10/15 10:34:30;;;;;;;27.02;16.32;;;;;;;16.58;69.59;98812.07;1747880;82;21432;-40
2022/10/15 10:36:56;;;;;;;30.45;16.12;;;;;;;16.65;69.60;98812.72;1747854;81;21027;-41
2022/10/15 10:39:31;;;;;;;29.90;16.87;;;;;;;16.75;70.01;98813.23;1747672;81;21024;-44
2022/10/15 10:42:04;;;;;;;25.77;15.90;;;;;;;16.72;69.37;98810.84;1747801;81;21023;-41
2022/10/15 10:44:39;;;;;;;25.88;16.57;;;;;;;16.76;69.28;98819.73;1754042;80;20991;-45
2022/10/15 10:47:13;;;;;;;34.10;16.85;;;;;;;16.81;69.20;98820.67;1761050;81;21476;-49
2022/10/15 10:49:49;;;;;;;26.40;16.30;;;;;;;16.78;68.67;98830.23;1761002;81;20948;-43
2022/10/15 10:52:32;;;;;;;23.75;15.80;;;;;;;16.83;69.24;98816.92;1761056;81;21544;-41
2022/10/15 10:55:06;;;;;;;25.48;16.93;;;;;;;16.82;68.21;98823.16;1761162;81;20948;-46
2022/10/15 10:57:54;;;;;;;23.80;16.02;;;;;;;16.81;68.89;98817.52;1761138;81;20987;-42
2022/10/15 11:00:43;;;;;;;25.32;15.90;;;;;;;16.82;69.05;98817.84;1761044;80;20987;-43
2022/10/15 11:03:34;;;;;;;29.02;15.85;;;;;;;16.77;68.56;98836.03;1761017;81;21019;-42
2022/10/15 11:06:25;;;;;;;22.93;15.98;;;;;;;16.75;69.23;98835.80;1761217;81;20995;-47
2022/10/15 11:09:11;;;;;;;22.00;16.12;;;;;;;16.61;69.31;98820.61;1734818;81;20987;-42
2022/10/15 11:12:21;;;;;;;23.63;16.30;;;;;;;16.56;69.52;98821.98;1761476;80;21583;-42
2022/10/15 11:15:24;;;;;;;25.80;16.75;;;;;;;16.50;69.98;98825.53;1753380;81;21007;-44
2022/10/15 11:18:02;;;;;;;22.65;15.38;;;;;;;16.46;70.75;98826.78;1740530;82;21007;-46
2022/10/15 11:20:42;;;;;;;28.27;16.05;;;;;;;16.44;70.88;98828.70;1735100;82;20964;-44
2022/10/15 11:23:25;;;;;;;22.30;14.50;;;;;;;16.38;70.77;98824.43;1740015;82;20967;-39
2022/10/15 11:25:58;;;;;;;24.20;14.87;;;;;;;16.33;70.47;98829.29;1740180;82;21007;-43
2022/10/15 11:28:52;;;;;;;22.50;15.05;;;;;;;16.38;70.54;98835.05;1737326;82;20968;-47
2022/10/15 11:31:39;;;;;;;22.50;15.15;;;;;;;16.39;70.46;98827.42;1740560;82;21000;-43
2022/10/15 11:34:26;;;;;;;20.90;14.58;;;;;;;16.36;69.89;98824.55;1740674;82;21477;-44
2022/10/15 11:37:23;;;;;;;20.12;14.93;;;;;;;16.47;70.18;98828.44;1740485;82;21003;-41
2022/10/15 11:40:33;;;;;;;22.70;14.87;;;;;;;16.44;69.94;98832.67;1740402;82;21778;-45